Boggsville, Illinois
Current Conditions -  °F | °C
As of 8:35 AM on Friday 28 Nov 2014 (Local Time) from K1H2 Reporting Station
Broken Clouds Broken Clouds  
Wind Chill: 16°   Ceiling: 12000
Heat Index: 25°   Visibility: 10mi
Dew Point: 18°   Wind: 8mph
Humidity: 75%   Direction: 140°SE
Pressure: 30.31"   Gusts: NA
Location:  39.1183°N, 88.6059°W
Report Text: K1H2 281435Z AUTO 14007KT 10SM BKN120 M04/M08 A3031 RMK AO2 T10381077
Loading
Personal Weather Stations






























Interactive Weather Map New forecast layout! Learn more

10-Day Weather Forecast

Advertisements
Track Severe Weather on mobile